sensor_id;sensor_type;location;lat;lon;timestamp;P1;durP1;ratioP1;P2;durP2;ratioP2
67965;SDS011;54749;47.850;9.002;2023-09-12T00:00:47;16.42;;;10.07;;
67965;SDS011;54749;47.850;9.002;2023-09-12T00:03:31;19.02;;;11.98;;
67965;SDS011;54749;47.850;9.002;2023-09-12T00:05:59;22.38;;;12.85;;
67965;SDS011;54749;47.850;9.002;2023-09-12T00:08:27;24.10;;;12.80;;
67965;SDS011;54749;47.850;9.002;2023-09-12T00:11:01;21.55;;;13.45;;
67965;SDS011;54749;47.850;9.002;2023-09-12T00:13:36;20.38;;;12.15;;
67965;SDS011;54749;47.850;9.002;2023-09-12T00:16:07;23.63;;;12.85;;
67965;SDS011;54749;47.850;9.002;2023-09-12T00:18:38;19.83;;;10.45;;
67965;SDS011;54749;47.850;9.002;2023-09-12T00:21:07;17.20;;;9.40;;
67965;SDS011;54749;47.850;9.002;2023-09-12T00:23:34;14.98;;;9.00;;
67965;SDS011;54749;47.850;9.002;2023-09-12T00:26:01;13.43;;;7.95;;
67965;SDS011;54749;47.850;9.002;2023-09-12T00:28:28;14.55;;;8.43;;
67965;SDS011;54749;47.850;9.002;2023-09-12T00:30:56;15.18;;;8.30;;
67965;SDS011;54749;47.850;9.002;2023-09-12T00:33:23;12.77;;;7.13;;
67965;SDS011;54749;47.850;9.002;2023-09-12T00:35:51;12.57;;;7.10;;
67965;SDS011;54749;47.850;9.002;2023-09-12T00:38:18;13.65;;;7.50;;
67965;SDS011;54749;47.850;9.002;2023-09-12T00:40:46;13.40;;;7.25;;
67965;SDS011;54749;47.850;9.002;2023-09-12T00:43:15;12.80;;;7.78;;
67965;SDS011;54749;47.850;9.002;2023-09-12T00:45:42;12.43;;;7.27;;
67965;SDS011;54749;47.850;9.002;2023-09-12T00:48:10;13.18;;;7.22;;
67965;SDS011;54749;47.850;9.002;2023-09-12T00:50:38;13.23;;;7.47;;
67965;SDS011;54749;47.850;9.002;2023-09-12T00:53:07;13.55;;;7.68;;
67965;SDS011;54749;47.850;9.002;2023-09-12T00:55:35;14.18;;;7.43;;
67965;SDS011;54749;47.850;9.002;2023-09-12T00:58:05;12.33;;;7.40;;
67965;SDS011;54749;47.850;9.002;2023-09-12T01:00:36;12.98;;;7.43;;
67965;SDS011;54749;47.850;9.002;2023-09-12T01:03:03;13.05;;;7.40;;
67965;SDS011;54749;47.850;9.002;2023-09-12T01:05:32;12.88;;;7.40;;
67965;SDS011;54749;47.850;9.002;2023-09-12T01:07:59;15.77;;;7.25;;
67965;SDS011;54749;47.850;9.002;2023-09-12T01:10:27;12.33;;;6.83;;
67965;SDS011;54749;47.850;9.002;2023-09-12T01:12:54;12.27;;;7.07;;
67965;SDS011;54749;47.850;9.002;2023-09-12T01:15:22;20.23;;;10.90;;
67965;SDS011;54749;47.850;9.002;2023-09-12T01:17:49;18.80;;;10.93;;
67965;SDS011;54749;47.850;9.002;2023-09-12T01:20:23;18.05;;;9.90;;
67965;SDS011;54749;47.850;9.002;2023-09-12T01:28:08;17.10;;;10.55;;
67965;SDS011;54749;47.850;9.002;2023-09-12T01:30:37;16.45;;;9.55;;
67965;SDS011;54749;47.850;9.002;2023-09-12T01:33:06;17.65;;;10.05;;
67965;SDS011;54749;47.850;9.002;2023-09-12T01:35:34;20.40;;;11.10;;
67965;SDS011;54749;47.850;9.002;2023-09-12T01:38:01;16.15;;;10.32;;
67965;SDS011;54749;47.850;9.002;2023-09-12T01:40:33;16.33;;;9.60;;
67965;SDS011;54749;47.850;9.002;2023-09-12T01:43:05;17.85;;;9.98;;
67965;SDS011;54749;47.850;9.002;2023-09-12T01:45:34;17.65;;;9.95;;
67965;SDS011;54749;47.850;9.002;2023-09-12T01:48:02;16.20;;;9.90;;
67965;SDS011;54749;47.850;9.002;2023-09-12T01:50:33;15.27;;;9.18;;
67965;SDS011;54749;47.850;9.002;2023-09-12T01:53:02;16.48;;;9.32;;
67965;SDS011;54749;47.850;9.002;2023-09-12T01:55:31;17.42;;;9.45;;
67965;SDS011;54749;47.850;9.002;2023-09-12T01:57:58;17.90;;;10.55;;
67965;SDS011;54749;47.850;9.002;2023-09-12T02:00:26;19.27;;;9.90;;
67965;SDS011;54749;47.850;9.002;2023-09-12T02:02:53;15.65;;;9.55;;
67965;SDS011;54749;47.850;9.002;2023-09-12T02:05:21;16.50;;;8.95;;
67965;SDS011;54749;47.850;9.002;2023-09-12T02:07:49;16.65;;;9.05;;
67965;SDS011;54749;47.850;9.002;2023-09-12T02:10:17;15.80;;;8.93;;
67965;SDS011;54749;47.850;9.002;2023-09-12T02:12:44;13.43;;;8.23;;
67965;SDS011;54749;47.850;9.002;2023-09-12T02:15:11;16.40;;;9.20;;
67965;SDS011;54749;47.850;9.002;2023-09-12T02:17:39;16.83;;;9.30;;
67965;SDS011;54749;47.850;9.002;2023-09-12T02:20:07;18.98;;;10.25;;
67965;SDS011;54749;47.850;9.002;2023-09-12T02:22:35;18.13;;;9.90;;
67965;SDS011;54749;47.850;9.002;2023-09-12T02:25:03;20.03;;;10.80;;
67965;SDS011;54749;47.850;9.002;2023-09-12T02:27:32;18.40;;;10.15;;
67965;SDS011;54749;47.850;9.002;2023-09-12T02:29:59;20.88;;;11.32;;
67965;SDS011;54749;47.850;9.002;2023-09-12T02:32:27;20.95;;;11.23;;
67965;SDS011;54749;47.850;9.002;2023-09-12T02:34:54;18.55;;;11.00;;
67965;SDS011;54749;47.850;9.002;2023-09-12T02:37:24;19.50;;;9.17;;
67965;SDS011;54749;47.850;9.002;2023-09-12T02:39:51;15.77;;;8.18;;
67965;SDS011;54749;47.850;9.002;2023-09-12T02:42:19;13.30;;;7.38;;
67965;SDS011;54749;47.850;9.002;2023-09-12T02:44:46;17.05;;;9.50;;
67965;SDS011;54749;47.850;9.002;2023-09-12T02:47:14;19.80;;;10.75;;
67965;SDS011;54749;47.850;9.002;2023-09-12T02:49:41;19.23;;;10.27;;
67965;SDS011;54749;47.850;9.002;2023-09-12T02:52:08;19.45;;;11.20;;
67965;SDS011;54749;47.850;9.002;2023-09-12T02:54:37;17.92;;;9.40;;
67965;SDS011;54749;47.850;9.002;2023-09-12T02:57:05;15.98;;;8.35;;
67965;SDS011;54749;47.850;9.002;2023-09-12T02:59:32;14.65;;;8.23;;
67965;SDS011;54749;47.850;9.002;2023-09-12T03:01:59;18.90;;;9.53;;
67965;SDS011;54749;47.850;9.002;2023-09-12T03:04:27;14.60;;;8.70;;
67965;SDS011;54749;47.850;9.002;2023-09-12T03:06:55;18.17;;;9.75;;
67965;SDS011;54749;47.850;9.002;2023-09-12T03:09:23;17.15;;;9.45;;
67965;SDS011;54749;47.850;9.002;2023-09-12T03:11:51;16.85;;;8.88;;
67965;SDS011;54749;47.850;9.002;2023-09-12T03:14:18;24.23;;;12.07;;
67965;SDS011;54749;47.850;9.002;2023-09-12T03:16:45;20.98;;;12.18;;
67965;SDS011;54749;47.850;9.002;2023-09-12T03:19:13;23.30;;;12.90;;
67965;SDS011;54749;47.850;9.002;2023-09-12T03:21:40;26.88;;;13.13;;
67965;SDS011;54749;47.850;9.002;2023-09-12T03:24:07;23.80;;;12.02;;
67965;SDS011;54749;47.850;9.002;2023-09-12T03:26:35;23.63;;;12.07;;
67965;SDS011;54749;47.850;9.002;2023-09-12T03:29:03;20.55;;;11.90;;
67965;SDS011;54749;47.850;9.002;2023-09-12T03:31:31;22.00;;;11.98;;
67965;SDS011;54749;47.850;9.002;2023-09-12T03:33:58;22.38;;;10.52;;
67965;SDS011;54749;47.850;9.002;2023-09-12T03:36:26;18.60;;;11.25;;
67965;SDS011;54749;47.850;9.002;2023-09-12T03:38:53;19.90;;;12.03;;
67965;SDS011;54749;47.850;9.002;2023-09-12T03:41:20;19.08;;;10.95;;
67965;SDS011;54749;47.850;9.002;2023-09-12T03:43:53;21.08;;;11.63;;
67965;SDS011;54749;47.850;9.002;2023-09-12T03:46:22;16.10;;;8.90;;
67965;SDS011;54749;47.850;9.002;2023-09-12T03:48:49;13.52;;;8.25;;
67965;SDS011;54749;47.850;9.002;2023-09-12T03:51:17;13.43;;;7.30;;
67965;SDS011;54749;47.850;9.002;2023-09-12T03:53:44;13.35;;;7.30;;
67965;SDS011;54749;47.850;9.002;2023-09-12T03:56:14;13.55;;;7.15;;
67965;SDS011;54749;47.850;9.002;2023-09-12T03:58:42;15.57;;;7.80;;
67965;SDS011;54749;47.850;9.002;2023-09-12T04:01:10;14.82;;;7.88;;
67965;SDS011;54749;47.850;9.002;2023-09-12T04:03:37;14.63;;;7.97;;
67965;SDS011;54749;47.850;9.002;2023-09-12T04:06:04;14.57;;;7.82;;
67965;SDS011;54749;47.850;9.002;2023-09-12T04:08:33;14.90;;;8.50;;
67965;SDS011;54749;47.850;9.002;2023-09-12T04:11:00;13.98;;;6.70;;
67965;SDS011;54749;47.850;9.002;2023-09-12T04:13:28;14.07;;;8.20;;
67965;SDS011;54749;47.850;9.002;2023-09-12T04:15:55;13.50;;;7.07;;
67965;SDS011;54749;47.850;9.002;2023-09-12T04:18:23;14.07;;;7.47;;
67965;SDS011;54749;47.850;9.002;2023-09-12T04:20:50;16.73;;;8.35;;
67965;SDS011;54749;47.850;9.002;2023-09-12T04:23:18;17.23;;;8.90;;
67965;SDS011;54749;47.850;9.002;2023-09-12T04:25:48;16.60;;;9.07;;
67965;SDS011;54749;47.850;9.002;2023-09-12T04:28:15;14.83;;;8.40;;
67965;SDS011;54749;47.850;9.002;2023-09-12T04:30:42;16.02;;;8.93;;
67965;SDS011;54749;47.850;9.002;2023-09-12T04:33:13;16.20;;;8.82;;
67965;SDS011;54749;47.850;9.002;2023-09-12T04:35:41;17.85;;;8.80;;
67965;SDS011;54749;47.850;9.002;2023-09-12T04:38:09;16.67;;;8.93;;
67965;SDS011;54749;47.850;9.002;2023-09-12T04:40:36;16.57;;;9.57;;
67965;SDS011;54749;47.850;9.002;2023-09-12T04:43:07;19.52;;;9.73;;
67965;SDS011;54749;47.850;9.002;2023-09-12T04:45:34;21.02;;;10.70;;
67965;SDS011;54749;47.850;9.002;2023-09-12T04:48:01;20.63;;;10.75;;
67965;SDS011;54749;47.850;9.002;2023-09-12T04:50:29;23.05;;;11.45;;
67965;SDS011;54749;47.850;9.002;2023-09-12T04:52:56;25.17;;;10.07;;
67965;SDS011;54749;47.850;9.002;2023-09-12T04:55:23;19.42;;;10.57;;
67965;SDS011;54749;47.850;9.002;2023-09-12T04:57:50;17.05;;;8.75;;
67965;SDS011;54749;47.850;9.002;2023-09-12T05:00:18;15.93;;;8.35;;
67965;SDS011;54749;47.850;9.002;2023-09-12T05:02:45;13.52;;;7.70;;
67965;SDS011;54749;47.850;9.002;2023-09-12T05:05:12;24.27;;;10.60;;
67965;SDS011;54749;47.850;9.002;2023-09-12T05:07:40;21.38;;;11.27;;
67965;SDS011;54749;47.850;9.002;2023-09-12T05:10:07;21.35;;;10.55;;
67965;SDS011;54749;47.850;9.002;2023-09-12T05:12:34;22.23;;;11.00;;
67965;SDS011;54749;47.850;9.002;2023-09-12T05:15:01;20.70;;;10.07;;
67965;SDS011;54749;47.850;9.002;2023-09-12T05:17:29;23.73;;;10.50;;
67965;SDS011;54749;47.850;9.002;2023-09-12T05:19:56;24.38;;;10.90;;
67965;SDS011;54749;47.850;9.002;2023-09-12T05:22:24;19.00;;;9.23;;
67965;SDS011;54749;47.850;9.002;2023-09-12T05:24:51;15.80;;;8.80;;
67965;SDS011;54749;47.850;9.002;2023-09-12T05:27:18;16.10;;;8.27;;
67965;SDS011;54749;47.850;9.002;2023-09-12T05:29:45;24.30;;;10.60;;
67965;SDS011;54749;47.850;9.002;2023-09-12T05:32:12;25.77;;;10.93;;
67965;SDS011;54749;47.850;9.002;2023-09-12T05:34:39;21.63;;;10.07;;
67965;SDS011;54749;47.850;9.002;2023-09-12T05:37:07;24.33;;;10.23;;
67965;SDS011;54749;47.850;9.002;2023-09-12T05:39:34;24.27;;;10.13;;
67965;SDS011;54749;47.850;9.002;2023-09-12T05:42:02;17.63;;;8.53;;
67965;SDS011;54749;47.850;9.002;2023-09-12T05:44:29;18.52;;;7.93;;
67965;SDS011;54749;47.850;9.002;2023-09-12T05:46:56;20.88;;;8.80;;
67965;SDS011;54749;47.850;9.002;2023-09-12T05:49:24;24.17;;;9.20;;
67965;SDS011;54749;47.850;9.002;2023-09-12T05:51:51;17.02;;;7.88;;
67965;SDS011;54749;47.850;9.002;2023-09-12T05:54:18;15.90;;;8.60;;
67965;SDS011;54749;47.850;9.002;2023-09-12T05:56:46;16.23;;;7.70;;
67965;SDS011;54749;47.850;9.002;2023-09-12T05:59:15;21.75;;;8.13;;
67965;SDS011;54749;47.850;9.002;2023-09-12T06:01:42;15.68;;;7.93;;
67965;SDS011;54749;47.850;9.002;2023-09-12T06:04:10;17.58;;;8.13;;
67965;SDS011;54749;47.850;9.002;2023-09-12T06:06:37;21.40;;;8.40;;
67965;SDS011;54749;47.850;9.002;2023-09-12T06:09:05;14.40;;;7.97;;
67965;SDS011;54749;47.850;9.002;2023-09-12T06:11:33;19.88;;;7.90;;
67965;SDS011;54749;47.850;9.002;2023-09-12T06:14:00;14.70;;;8.20;;
67965;SDS011;54749;47.850;9.002;2023-09-12T06:16:28;16.60;;;8.10;;
67965;SDS011;54749;47.850;9.002;2023-09-12T06:18:56;15.67;;;7.87;;
67965;SDS011;54749;47.850;9.002;2023-09-12T06:21:23;18.20;;;8.13;;
67965;SDS011;54749;47.850;9.002;2023-09-12T06:24:07;20.33;;;8.35;;
67965;SDS011;54749;47.850;9.002;2023-09-12T06:26:37;18.48;;;8.57;;
67965;SDS011;54749;47.850;9.002;2023-09-12T06:29:05;17.23;;;7.93;;
67965;SDS011;54749;47.850;9.002;2023-09-12T06:31:33;14.73;;;7.80;;
67965;SDS011;54749;47.850;9.002;2023-09-12T06:34:00;19.67;;;8.13;;
67965;SDS011;54749;47.850;9.002;2023-09-12T06:36:28;19.25;;;8.90;;
67965;SDS011;54749;47.850;9.002;2023-09-12T06:38:58;21.63;;;8.75;;
67965;SDS011;54749;47.850;9.002;2023-09-12T06:41:26;16.23;;;7.72;;
67965;SDS011;54749;47.850;9.002;2023-09-12T06:43:54;20.17;;;8.37;;
67965;SDS011;54749;47.850;9.002;2023-09-12T06:46:24;17.38;;;7.30;;
67965;SDS011;54749;47.850;9.002;2023-09-12T06:48:52;19.45;;;7.82;;
67965;SDS011;54749;47.850;9.002;2023-09-12T06:51:22;13.40;;;6.72;;
67965;SDS011;54749;47.850;9.002;2023-09-12T06:53:50;25.08;;;8.90;;
67965;SDS011;54749;47.850;9.002;2023-09-12T06:56:18;18.13;;;8.80;;
67965;SDS011;54749;47.850;9.002;2023-09-12T06:58:45;17.30;;;8.65;;
67965;SDS011;54749;47.850;9.002;2023-09-12T07:01:12;14.45;;;7.85;;
67965;SDS011;54749;47.850;9.002;2023-09-12T07:03:39;25.15;;;7.47;;
67965;SDS011;54749;47.850;9.002;2023-09-12T07:06:07;12.23;;;6.00;;
67965;SDS011;54749;47.850;9.002;2023-09-12T07:08:35;15.67;;;6.73;;
67965;SDS011;54749;47.850;9.002;2023-09-12T07:11:04;16.95;;;7.53;;
67965;SDS011;54749;47.850;9.002;2023-09-12T07:13:32;13.18;;;7.07;;
67965;SDS011;54749;47.850;9.002;2023-09-12T07:16:00;17.90;;;7.57;;
67965;SDS011;54749;47.850;9.002;2023-09-12T07:18:31;15.60;;;7.63;;
67965;SDS011;54749;47.850;9.002;2023-09-12T07:21:02;18.87;;;6.90;;
67965;SDS011;54749;47.850;9.002;2023-09-12T07:23:30;16.40;;;7.30;;
67965;SDS011;54749;47.850;9.002;2023-09-12T07:25:58;14.07;;;7.10;;
67965;SDS011;54749;47.850;9.002;2023-09-12T07:28:25;17.95;;;7.80;;
67965;SDS011;54749;47.850;9.002;2023-09-12T07:30:54;18.55;;;7.43;;
67965;SDS011;54749;47.850;9.002;2023-09-12T07:33:21;15.80;;;7.10;;
67965;SDS011;54749;47.850;9.002;2023-09-12T07:35:51;14.80;;;6.80;;
67965;SDS011;54749;47.850;9.002;2023-09-12T07:38:20;11.18;;;6.13;;
67965;SDS011;54749;47.850;9.002;2023-09-12T07:40:48;14.50;;;8.32;;
67965;SDS011;54749;47.850;9.002;2023-09-12T07:43:15;11.55;;;7.55;;
67965;SDS011;54749;47.850;9.002;2023-09-12T07:45:42;16.60;;;7.50;;
67965;SDS011;54749;47.850;9.002;2023-09-12T07:48:10;12.02;;;6.53;;
67965;SDS011;54749;47.850;9.002;2023-09-12T07:50:38;12.35;;;6.88;;
67965;SDS011;54749;47.850;9.002;2023-09-12T07:53:05;17.10;;;8.77;;
67965;SDS011;54749;47.850;9.002;2023-09-12T07:55:37;13.65;;;8.90;;
67965;SDS011;54749;47.850;9.002;2023-09-12T07:58:13;14.97;;;8.80;;
67965;SDS011;54749;47.850;9.002;2023-09-12T08:00:41;11.63;;;8.07;;
67965;SDS011;54749;47.850;9.002;2023-09-12T08:03:08;10.77;;;7.03;;
67965;SDS011;54749;47.850;9.002;2023-09-12T08:05:36;11.55;;;7.28;;
67965;SDS011;54749;47.850;9.002;2023-09-12T08:08:03;9.73;;;6.90;;
67965;SDS011;54749;47.850;9.002;2023-09-12T08:10:31;7.93;;;5.97;;
67965;SDS011;54749;47.850;9.002;2023-09-12T08:12:58;8.95;;;6.18;;
67965;SDS011;54749;47.850;9.002;2023-09-12T08:15:25;12.18;;;7.55;;
67965;SDS011;54749;47.850;9.002;2023-09-12T08:17:53;10.15;;;7.90;;
67965;SDS011;54749;47.850;9.002;2023-09-12T08:20:21;10.85;;;8.20;;
67965;SDS011;54749;47.850;9.002;2023-09-12T08:22:48;10.83;;;7.03;;
67965;SDS011;54749;47.850;9.002;2023-09-12T08:25:16;12.20;;;8.07;;
67965;SDS011;54749;47.850;9.002;2023-09-12T08:27:43;11.05;;;6.45;;
67965;SDS011;54749;47.850;9.002;2023-09-12T08:30:11;10.75;;;7.40;;
67965;SDS011;54749;47.850;9.002;2023-09-12T08:32:40;10.57;;;6.90;;
67965;SDS011;54749;47.850;9.002;2023-09-12T08:35:12;10.97;;;7.77;;
67965;SDS011;54749;47.850;9.002;2023-09-12T08:37:40;11.45;;;8.27;;
67965;SDS011;54749;47.850;9.002;2023-09-12T08:40:09;24.00;;;16.38;;
67965;SDS011;54749;47.850;9.002;2023-09-12T08:42:39;20.85;;;13.50;;
67965;SDS011;54749;47.850;9.002;2023-09-12T08:47:42;20.87;;;15.20;;
67965;SDS011;54749;47.850;9.002;2023-09-12T08:50:13;13.95;;;8.90;;
67965;SDS011;54749;47.850;9.002;2023-09-12T08:52:42;12.38;;;7.13;;
67965;SDS011;54749;47.850;9.002;2023-09-12T08:55:25;11.30;;;7.85;;
67965;SDS011;54749;47.850;9.002;2023-09-12T08:57:52;12.80;;;8.60;;
67965;SDS011;54749;47.850;9.002;2023-09-12T09:00:23;20.47;;;12.73;;
67965;SDS011;54749;47.850;9.002;2023-09-12T09:02:51;13.88;;;11.20;;
67965;SDS011;54749;47.850;9.002;2023-09-12T09:05:20;11.68;;;8.25;;
67965;SDS011;54749;47.850;9.002;2023-09-12T09:07:49;10.32;;;7.47;;
67965;SDS011;54749;47.850;9.002;2023-09-12T09:10:18;11.88;;;7.70;;
67965;SDS011;54749;47.850;9.002;2023-09-12T09:12:59;10.27;;;7.47;;
67965;SDS011;54749;47.850;9.002;2023-09-12T09:15:28;11.13;;;8.05;;
67965;SDS011;54749;47.850;9.002;2023-09-12T09:17:56;12.45;;;8.40;;
67965;SDS011;54749;47.850;9.002;2023-09-12T09:20:29;9.00;;;7.18;;
67965;SDS011;54749;47.850;9.002;2023-09-12T09:25:42;11.17;;;7.87;;
67965;SDS011;54749;47.850;9.002;2023-09-12T09:28:16;8.52;;;6.28;;
67965;SDS011;54749;47.850;9.002;2023-09-12T09:30:46;7.45;;;6.07;;
67965;SDS011;54749;47.850;9.002;2023-09-12T09:33:22;8.00;;;6.40;;
67965;SDS011;54749;47.850;9.002;2023-09-12T09:35:50;8.90;;;6.65;;
67965;SDS011;54749;47.850;9.002;2023-09-12T09:38:24;9.40;;;6.47;;
67965;SDS011;54749;47.850;9.002;2023-09-12T09:40:52;9.20;;;7.00;;
67965;SDS011;54749;47.850;9.002;2023-09-12T09:43:20;10.68;;;6.97;;
67965;SDS011;54749;47.850;9.002;2023-09-12T09:45:48;8.50;;;6.20;;
67965;SDS011;54749;47.850;9.002;2023-09-12T09:50:47;8.60;;;6.60;;
67965;SDS011;54749;47.850;9.002;2023-09-12T09:53:14;9.98;;;7.53;;
67965;SDS011;54749;47.850;9.002;2023-09-12T09:55:41;8.75;;;7.28;;
67965;SDS011;54749;47.850;9.002;2023-09-12T09:58:14;10.57;;;6.95;;
67965;SDS011;54749;47.850;9.002;2023-09-12T10:00:45;8.95;;;6.97;;
67965;SDS011;54749;47.850;9.002;2023-09-12T10:03:15;8.13;;;6.67;;
67965;SDS011;54749;47.850;9.002;2023-09-12T10:05:46;7.50;;;5.70;;
67965;SDS011;54749;47.850;9.002;2023-09-12T10:08:17;7.55;;;5.97;;
67965;SDS011;54749;47.850;9.002;2023-09-12T10:10:46;7.97;;;6.15;;
67965;SDS011;54749;47.850;9.002;2023-09-12T10:13:14;9.10;;;7.15;;
67965;SDS011;54749;47.850;9.002;2023-09-12T10:15:42;9.70;;;6.40;;
67965;SDS011;54749;47.850;9.002;2023-09-12T10:18:14;11.02;;;6.50;;
67965;SDS011;54749;47.850;9.002;2023-09-12T10:20:58;11.57;;;7.18;;
67965;SDS011;54749;47.850;9.002;2023-09-12T10:23:39;9.50;;;7.38;;
67965;SDS011;54749;47.850;9.002;2023-09-12T10:26:11;9.90;;;7.97;;
67965;SDS011;54749;47.850;9.002;2023-09-12T10:28:40;8.93;;;6.73;;
67965;SDS011;54749;47.850;9.002;2023-09-12T10:31:10;8.05;;;6.20;;
67965;SDS011;54749;47.850;9.002;2023-09-12T10:33:39;9.85;;;8.13;;
67965;SDS011;54749;47.850;9.002;2023-09-12T10:36:08;8.32;;;6.80;;
67965;SDS011;54749;47.850;9.002;2023-09-12T10:38:44;10.15;;;7.65;;
67965;SDS011;54749;47.850;9.002;2023-09-12T10:41:14;9.20;;;7.70;;
67965;SDS011;54749;47.850;9.002;2023-09-12T10:43:42;13.32;;;7.30;;
67965;SDS011;54749;47.850;9.002;2023-09-12T10:46:13;10.30;;;6.90;;
67965;SDS011;54749;47.850;9.002;2023-09-12T10:48:41;8.13;;;6.20;;
67965;SDS011;54749;47.850;9.002;2023-09-12T10:51:09;11.00;;;6.55;;
67965;SDS011;54749;47.850;9.002;2023-09-12T10:53:37;8.30;;;6.43;;
67965;SDS011;54749;47.850;9.002;2023-09-12T11:01:32;8.35;;;6.82;;
67965;SDS011;54749;47.850;9.002;2023-09-12T11:04:45;8.10;;;6.60;;
67965;SDS011;54749;47.850;9.002;2023-09-12T11:06:54;11.50;;;7.70;;
67965;SDS011;54749;47.850;9.002;2023-09-12T11:09:24;9.30;;;6.90;;
67965;SDS011;54749;47.850;9.002;2023-09-12T11:11:55;8.82;;;6.90;;
67965;SDS011;54749;47.850;9.002;2023-09-12T11:14:25;9.88;;;7.55;;
67965;SDS011;54749;47.850;9.002;2023-09-12T11:19:45;8.70;;;6.63;;
67965;SDS011;54749;47.850;9.002;2023-09-12T11:22:23;9.25;;;6.63;;
67965;SDS011;54749;47.850;9.002;2023-09-12T11:24:51;9.18;;;7.20;;
67965;SDS011;54749;47.850;9.002;2023-09-12T11:27:19;10.98;;;8.05;;
67965;SDS011;54749;47.850;9.002;2023-09-12T11:29:47;11.85;;;8.05;;
67965;SDS011;54749;47.850;9.002;2023-09-12T11:32:30;11.77;;;6.97;;
67965;SDS011;54749;47.850;9.002;2023-09-12T11:34:59;12.52;;;8.65;;
67965;SDS011;54749;47.850;9.002;2023-09-12T11:37:31;11.68;;;8.55;;
67965;SDS011;54749;47.850;9.002;2023-09-12T11:39:59;10.43;;;7.95;;
67965;SDS011;54749;47.850;9.002;2023-09-12T11:42:27;12.35;;;8.60;;
67965;SDS011;54749;47.850;9.002;2023-09-12T11:44:54;10.37;;;7.23;;
67965;SDS011;54749;47.850;9.002;2023-09-12T11:47:23;14.30;;;8.50;;
67965;SDS011;54749;47.850;9.002;2023-09-12T11:49:50;13.05;;;8.93;;
67965;SDS011;54749;47.850;9.002;2023-09-12T11:52:18;11.95;;;8.13;;
67965;SDS011;54749;47.850;9.002;2023-09-12T11:54:48;11.50;;;8.43;;
67965;SDS011;54749;47.850;9.002;2023-09-12T11:57:15;9.83;;;7.47;;
67965;SDS011;54749;47.850;9.002;2023-09-12T11:59:43;10.40;;;8.10;;
67965;SDS011;54749;47.850;9.002;2023-09-12T12:02:14;11.18;;;7.50;;
67965;SDS011;54749;47.850;9.002;2023-09-12T12:04:41;10.82;;;7.40;;
67965;SDS011;54749;47.850;9.002;2023-09-12T12:07:09;11.68;;;8.27;;
67965;SDS011;54749;47.850;9.002;2023-09-12T12:09:37;11.87;;;8.63;;
67965;SDS011;54749;47.850;9.002;2023-09-12T12:12:09;11.43;;;8.55;;
67965;SDS011;54749;47.850;9.002;2023-09-12T12:14:40;10.65;;;7.90;;
67965;SDS011;54749;47.850;9.002;2023-09-12T12:17:09;11.40;;;8.50;;
67965;SDS011;54749;47.850;9.002;2023-09-12T12:19:37;10.45;;;8.13;;
67965;SDS011;54749;47.850;9.002;2023-09-12T12:22:06;13.53;;;9.10;;
67965;SDS011;54749;47.850;9.002;2023-09-12T12:24:41;12.52;;;8.18;;
67965;SDS011;54749;47.850;9.002;2023-09-12T12:27:11;10.60;;;7.70;;
67965;SDS011;54749;47.850;9.002;2023-09-12T12:29:38;10.73;;;7.38;;
67965;SDS011;54749;47.850;9.002;2023-09-12T12:32:06;9.68;;;6.93;;
67965;SDS011;54749;47.850;9.002;2023-09-12T12:34:36;11.27;;;7.77;;
67965;SDS011;54749;47.850;9.002;2023-09-12T12:37:28;10.38;;;7.85;;
67965;SDS011;54749;47.850;9.002;2023-09-12T12:40:00;12.30;;;7.43;;
67965;SDS011;54749;47.850;9.002;2023-09-12T12:42:37;11.30;;;8.82;;
67965;SDS011;54749;47.850;9.002;2023-09-12T12:45:20;13.30;;;9.25;;
67965;SDS011;54749;47.850;9.002;2023-09-12T12:47:51;10.63;;;7.37;;
67965;SDS011;54749;47.850;9.002;2023-09-12T12:50:21;14.85;;;7.90;;
67965;SDS011;54749;47.850;9.002;2023-09-12T12:52:49;10.90;;;8.07;;
67965;SDS011;54749;47.850;9.002;2023-09-12T12:55:16;11.80;;;7.82;;
67965;SDS011;54749;47.850;9.002;2023-09-12T12:57:44;14.18;;;7.55;;
67965;SDS011;54749;47.850;9.002;2023-09-12T13:00:15;12.00;;;7.73;;
67965;SDS011;54749;47.850;9.002;2023-09-12T13:02:45;11.50;;;7.28;;
67965;SDS011;54749;47.850;9.002;2023-09-12T13:07:53;10.55;;;7.25;;
67965;SDS011;54749;47.850;9.002;2023-09-12T13:10:21;11.02;;;7.13;;
67965;SDS011;54749;47.850;9.002;2023-09-12T13:12:49;9.90;;;7.80;;
67965;SDS011;54749;47.850;9.002;2023-09-12T13:15:17;13.40;;;8.30;;
67965;SDS011;54749;47.850;9.002;2023-09-12T13:17:45;10.77;;;7.65;;
67965;SDS011;54749;47.850;9.002;2023-09-12T13:20:13;10.90;;;7.93;;
67965;SDS011;54749;47.850;9.002;2023-09-12T13:22:40;11.65;;;7.43;;
67965;SDS011;54749;47.850;9.002;2023-09-12T13:25:09;10.00;;;7.33;;
67965;SDS011;54749;47.850;9.002;2023-09-12T13:27:37;14.35;;;8.45;;
67965;SDS011;54749;47.850;9.002;2023-09-12T13:30:05;12.32;;;7.43;;
67965;SDS011;54749;47.850;9.002;2023-09-12T13:32:33;11.10;;;7.63;;
67965;SDS011;54749;47.850;9.002;2023-09-12T13:35:00;12.82;;;7.95;;
67965;SDS011;54749;47.850;9.002;2023-09-12T13:37:27;11.43;;;7.60;;
67965;SDS011;54749;47.850;9.002;2023-09-12T13:39:54;11.60;;;7.10;;
67965;SDS011;54749;47.850;9.002;2023-09-12T13:42:22;10.82;;;6.90;;
67965;SDS011;54749;47.850;9.002;2023-09-12T13:44:49;12.05;;;9.25;;
67965;SDS011;54749;47.850;9.002;2023-09-12T13:47:17;11.48;;;8.35;;
67965;SDS011;54749;47.850;9.002;2023-09-12T13:49:49;10.67;;;7.57;;
67965;SDS011;54749;47.850;9.002;2023-09-12T13:52:20;10.25;;;7.43;;
67965;SDS011;54749;47.850;9.002;2023-09-12T13:54:48;11.68;;;7.78;;
67965;SDS011;54749;47.850;9.002;2023-09-12T13:57:15;12.75;;;7.60;;
67965;SDS011;54749;47.850;9.002;2023-09-12T13:59:43;9.90;;;7.03;;
67965;SDS011;54749;47.850;9.002;2023-09-12T14:02:12;9.40;;;6.97;;
67965;SDS011;54749;47.850;9.002;2023-09-12T14:04:40;11.07;;;6.72;;
67965;SDS011;54749;47.850;9.002;2023-09-12T14:07:09;10.45;;;6.90;;
67965;SDS011;54749;47.850;9.002;2023-09-12T14:09:37;10.68;;;7.70;;
67965;SDS011;54749;47.850;9.002;2023-09-12T14:12:04;11.18;;;7.85;;
67965;SDS011;54749;47.850;9.002;2023-09-12T14:14:44;10.43;;;6.93;;
67965;SDS011;54749;47.850;9.002;2023-09-12T14:17:23;9.55;;;7.20;;
67965;SDS011;54749;47.850;9.002;2023-09-12T14:19:51;9.98;;;6.68;;
67965;SDS011;54749;47.850;9.002;2023-09-12T14:22:20;12.32;;;7.65;;
67965;SDS011;54749;47.850;9.002;2023-09-12T14:24:49;11.45;;;7.47;;
67965;SDS011;54749;47.850;9.002;2023-09-12T14:27:16;8.80;;;6.67;;
67965;SDS011;54749;47.850;9.002;2023-09-12T14:29:53;9.65;;;6.82;;
67965;SDS011;54749;47.850;9.002;2023-09-12T14:32:20;11.38;;;6.93;;
67965;SDS011;54749;47.850;9.002;2023-09-12T14:34:47;12.38;;;7.65;;
67965;SDS011;54749;47.850;9.002;2023-09-12T14:37:14;13.90;;;8.50;;
67965;SDS011;54749;47.850;9.002;2023-09-12T14:39:41;12.47;;;8.40;;
67965;SDS011;54749;47.850;9.002;2023-09-12T14:42:09;11.57;;;8.15;;
67965;SDS011;54749;47.850;9.002;2023-09-12T14:44:36;13.75;;;8.60;;
67965;SDS011;54749;47.850;9.002;2023-09-12T14:47:04;14.23;;;8.85;;
67965;SDS011;54749;47.850;9.002;2023-09-12T14:49:31;13.65;;;9.73;;
67965;SDS011;54749;47.850;9.002;2023-09-12T14:52:09;13.10;;;8.60;;
67965;SDS011;54749;47.850;9.002;2023-09-12T14:54:49;12.82;;;8.75;;
67965;SDS011;54749;47.850;9.002;2023-09-12T14:57:16;14.45;;;8.60;;
67965;SDS011;54749;47.850;9.002;2023-09-12T14:59:44;13.65;;;8.25;;
67965;SDS011;54749;47.850;9.002;2023-09-12T15:02:10;11.82;;;8.18;;
67965;SDS011;54749;47.850;9.002;2023-09-12T15:04:38;12.00;;;8.00;;
67965;SDS011;54749;47.850;9.002;2023-09-12T15:07:05;13.00;;;8.57;;